LIPB Airport Information

Runway Information
Runway 01 Length 4255 ft width 98 ft
Elevation 771 ft Threshold 0 ft Heading 10
Runway 19 Length 4255 ft Width 98 ft
Elevation 788 ft Threshold 200 ft Heading 190
Runway 01R Length 2290 ft width 66 ft
Elevation 773 ft Threshold 0 ft Heading 11
Runway 19L Length 2290 ft Width 66 ft
Elevation 782 ft Threshold 0 ft Heading 191
Airport Frequencies
Type AFIS Name INFO Frequency 120.6 MHZ
Airport Navaids
Type NDB Name Bolzano Frequency 362 KHZ
Type VOR-DME Name Bolzano Frequency 117050 KHZ
Airport Weather Information & NOTAM
ADDS - METARS form results

(0741 UTC 15 December 2018)
Data provider http://aviationweather.gov/metar/data/
 
METAR text: LIPB 150650Z 00000KT CAVOK M06/M09 Q1020
Conditions at: LIPB (BOLZANO(CIV/IT-A, IT) observed 0650 UTC 15 December 2018
Temperature: -6.0°C (21°F)
Dewpoint: -9.0°C (16°F) [RH = 79%]
Pressure (altimeter): 30.12 inches Hg (1020.0 mb)
Winds: calm
Visibility: 6 or more miles (10+ km)
Ceiling: ceiling and visibility are OK
Clouds: unknown
Weather: no significant weather observed at this time

Forecast for: LIPB (BOLZANO(CIV/IT-A, IT)
Text: TAF LIPB 150500Z 1506/1606 01008KT CAVOK
Forecast period: 0600 UTC 15 December 2018 to 0600 UTC 16 December 2018
Forecast type: FROM: standard forecast or significant change
Winds: from the N (10 degrees) at 9 MPH (8 knots; 4.1 m/s)
Visibility: 6 or more miles 10+ km)
Ceiling: unknown
Clouds: missing
Weather: NSW  (no significant weather)